Amador City, California
Current Conditions -  °F | °C
As of 10:35 PM on Wednesday 22 Oct 2014 (Local Time) from KPVF Reporting Station
Clear Clear  
Wind Chill: 55°   Ceiling: Unl
Heat Index: 55°   Visibility: 10mi
Dew Point: 37°   Wind: 7mph
Humidity: 51%   Direction: 100°E
Pressure: 30.1"   Gusts: NA
Location:  38.42°N, 120.82°W
Report Text: KPVF 230535Z AUTO 10006KT 10SM CLR 13/03 A3010 RMK AO1
Loading
Personal Weather Stations






























Interactive Weather Map
Tropical Storm Tracking
New forecast layout! Learn more

10-Day Weather Forecast

Advertisements
Track Severe Weather on mobile